createdAt,value
2018-09-01T00:01:36.345Z,3.60
2018-09-01T00:04:05.385Z,3.10
2018-09-01T00:06:34.372Z,3.97
2018-09-01T00:09:04.564Z,7.77
2018-09-01T00:11:33.808Z,4.40
2018-09-01T00:14:02.807Z,3.17
2018-09-01T00:16:31.983Z,3.40
2018-09-01T00:19:00.995Z,5.30
2018-09-01T00:21:30.020Z,5.50
2018-09-01T00:24:02.269Z,6.10
2018-09-01T00:26:31.279Z,5.33
2018-09-01T00:29:00.252Z,6.13
2018-09-01T00:31:29.263Z,12.83
2018-09-01T00:33:58.259Z,2.87
2018-09-01T00:36:27.269Z,3.73
2018-09-01T00:39:02.512Z,3.53
2018-09-01T00:41:32.904Z,5.23
2018-09-01T00:44:01.973Z,5.40
2018-09-01T00:46:31.412Z,5.53
2018-09-01T00:49:00.453Z,3.77
2018-09-01T00:51:29.432Z,10.60
2018-09-01T00:53:58.473Z,3.53
2018-09-01T00:56:28.560Z,5.37
2018-09-01T00:58:57.638Z,3.63
2018-09-01T01:01:26.664Z,8.63
2018-09-01T01:03:55.683Z,3.47
2018-09-01T01:06:24.746Z,4.23
2018-09-01T01:08:53.788Z,5.90
2018-09-01T01:11:22.912Z,3.57
2018-09-01T01:13:51.928Z,6.50
2018-09-01T01:16:20.897Z,4.00
2018-09-01T01:18:49.927Z,6.90
2018-09-01T01:21:18.920Z,4.33
2018-09-01T01:23:47.953Z,4.83
2018-09-01T01:26:17.121Z,6.00
2018-09-01T01:28:46.336Z,7.30
2018-09-01T01:31:15.376Z,5.00
2018-09-01T01:33:44.397Z,5.27
2018-09-01T01:36:13.555Z,5.40
2018-09-01T01:38:42.570Z,5.17
2018-09-01T01:41:11.662Z,5.40
2018-09-01T01:43:40.731Z,4.67
2018-09-01T01:46:09.741Z,6.77
2018-09-01T01:48:38.757Z,5.50
2018-09-01T01:51:07.772Z,4.53
2018-09-01T01:53:36.801Z,6.70
2018-09-01T01:56:06.869Z,5.40
2018-09-01T01:58:35.847Z,6.57
2018-09-01T02:01:04.849Z,5.23
2018-09-01T02:03:33.944Z,6.00
2018-09-01T02:06:02.957Z,6.07
2018-09-01T02:08:31.962Z,5.67
2018-09-01T02:11:00.971Z,7.23
2018-09-01T02:13:29.969Z,8.77
2018-09-01T02:15:58.969Z,10.27
2018-09-01T02:18:28.064Z,5.93
2018-09-01T02:20:57.104Z,8.07
2018-09-01T02:23:26.807Z,11.37
2018-09-01T02:25:55.859Z,8.83
2018-09-01T02:28:25.687Z,10.70
2018-09-01T02:30:54.801Z,11.23
2018-09-01T02:33:23.922Z,12.40
2018-09-01T02:35:53.014Z,15.07
2018-09-01T02:38:22.011Z,9.47
2018-09-01T02:40:51.076Z,10.57
2018-09-01T02:43:20.133Z,13.30
2018-09-01T02:45:49.196Z,11.67
2018-09-01T02:48:18.299Z,18.70
2018-09-01T02:50:47.436Z,16.07
2018-09-01T02:53:16.631Z,15.53
2018-09-01T02:55:45.959Z,10.10
2018-09-01T02:58:15.033Z,14.50
2018-09-01T03:00:44.059Z,12.40
2018-09-01T03:03:13.144Z,13.73
2018-09-01T03:05:42.095Z,14.13
2018-09-01T03:08:11.080Z,11.77
2018-09-01T03:10:40.143Z,13.10
2018-09-01T03:13:09.137Z,13.77
2018-09-01T03:15:38.183Z,13.43
2018-09-01T03:18:07.235Z,16.27
2018-09-01T03:20:36.292Z,13.50
2018-09-01T03:23:05.344Z,17.40
2018-09-01T03:25:34.352Z,14.03
2018-09-01T03:28:03.325Z,13.10
2018-09-01T03:30:32.502Z,13.10
2018-09-01T03:33:01.707Z,15.27
2018-09-01T03:35:30.742Z,12.23
2018-09-01T03:37:59.919Z,15.10
2018-09-01T03:40:29.056Z,15.43
2018-09-01T03:42:58.017Z,12.27
2018-09-01T03:45:27.111Z,11.47
2018-09-01T03:47:56.372Z,12.30
2018-09-01T03:50:25.415Z,12.67
2018-09-01T03:52:54.438Z,14.40
2018-09-01T03:55:23.451Z,13.20
2018-09-01T03:57:52.580Z,12.90
2018-09-01T04:00:25.657Z,22.40
2018-09-01T04:02:54.903Z,15.03
2018-09-01T04:05:23.915Z,12.37
2018-09-01T04:07:53.255Z,12.47
2018-09-01T04:10:22.558Z,14.13
2018-09-01T04:12:51.575Z,11.97
2018-09-01T04:15:20.601Z,11.37
2018-09-01T04:17:49.644Z,14.27
2018-09-01T04:20:18.705Z,14.43
2018-09-01T04:22:47.731Z,14.43
2018-09-01T04:25:16.736Z,12.90
2018-09-01T04:27:45.732Z,11.83
2018-09-01T04:30:14.828Z,12.20
2018-09-01T04:32:43.830Z,22.47
2018-09-01T04:35:12.955Z,16.80
2018-09-01T04:37:41.952Z,15.23
2018-09-01T04:40:11.051Z,11.03
2018-09-01T04:42:40.073Z,14.80
2018-09-01T04:45:09.153Z,12.67
2018-09-01T04:47:38.250Z,17.07
2018-09-01T04:50:07.369Z,16.63
2018-09-01T04:52:36.432Z,13.93
2018-09-01T04:55:05.533Z,18.50
2018-09-01T04:57:34.610Z,15.00
2018-09-01T05:00:03.728Z,15.60
2018-09-01T05:02:32.731Z,17.00
2018-09-01T05:05:01.876Z,16.63
2018-09-01T05:07:31.055Z,14.53
2018-09-01T05:10:00.040Z,15.93
2018-09-01T05:12:29.094Z,16.03
2018-09-01T05:14:58.130Z,22.90
2018-09-01T05:17:27.256Z,18.50
2018-09-01T05:19:56.837Z,16.07
2018-09-01T05:22:25.844Z,16.43
2018-09-01T05:24:54.962Z,21.93
2018-09-01T05:27:24.048Z,18.00
2018-09-01T05:29:53.213Z,19.73
2018-09-01T05:32:22.237Z,19.10
2018-09-01T05:34:51.333Z,19.07
2018-09-01T05:37:20.385Z,22.97
2018-09-01T05:39:49.412Z,19.87
2018-09-01T05:42:18.449Z,20.97
2018-09-01T05:44:47.525Z,21.70
2018-09-01T05:47:16.535Z,23.30
2018-09-01T05:49:45.599Z,23.43
2018-09-01T05:52:14.593Z,23.47
2018-09-01T05:54:43.614Z,27.13
2018-09-01T05:57:12.622Z,22.33
2018-09-01T05:59:41.617Z,25.07
2018-09-01T06:02:10.670Z,27.23
2018-09-01T06:04:39.704Z,25.33
2018-09-01T06:07:08.807Z,25.90
2018-09-01T06:09:37.826Z,25.93
2018-09-01T06:12:06.858Z,26.10
2018-09-01T06:14:35.855Z,31.13
2018-09-01T06:17:05.418Z,28.17
2018-09-01T06:19:35.278Z,26.20
2018-09-01T06:22:04.389Z,34.77
2018-09-01T06:24:33.409Z,28.10
2018-09-01T06:27:07.313Z,30.93
2018-09-01T06:29:36.390Z,25.63
2018-09-01T06:32:07.093Z,27.57
2018-09-01T06:34:36.151Z,30.00
2018-09-01T06:37:05.314Z,26.67
2018-09-01T06:39:34.858Z,28.03
2018-09-01T06:42:04.323Z,29.00
2018-09-01T06:44:33.548Z,28.50
2018-09-01T06:47:02.597Z,29.50
2018-09-01T06:49:31.897Z,28.33
2018-09-01T06:52:00.981Z,29.30
2018-09-01T06:54:30.009Z,29.37
2018-09-01T06:56:59.558Z,30.00
2018-09-01T06:59:28.713Z,26.87
2018-09-01T07:01:57.848Z,30.00
2018-09-01T07:04:26.907Z,31.87
2018-09-01T07:06:55.898Z,29.27
2018-09-01T07:09:24.895Z,31.97
2018-09-01T07:11:53.906Z,27.90
2018-09-01T07:14:22.924Z,30.53
2018-09-01T07:16:52.029Z,28.70
2018-09-01T07:19:21.044Z,29.27
2018-09-01T07:21:50.093Z,29.30
2018-09-01T07:24:19.176Z,32.10
2018-09-01T07:26:48.314Z,28.20
2018-09-01T07:29:17.793Z,32.27
2018-09-01T07:31:47.011Z,26.87
2018-09-01T07:34:16.880Z,31.70
2018-09-01T07:36:46.396Z,32.13
2018-09-01T07:39:16.509Z,28.13
2018-09-01T07:41:46.931Z,35.33
2018-09-01T07:44:26.710Z,29.27
2018-09-01T07:46:56.158Z,34.63
2018-09-01T07:49:25.185Z,28.97
2018-09-01T07:51:54.734Z,25.03
2018-09-01T07:54:23.853Z,31.10
2018-09-01T07:56:52.873Z,31.83
2018-09-01T07:59:22.080Z,32.23
2018-09-01T08:01:52.406Z,28.13
2018-09-01T08:04:45.019Z,28.70
2018-09-01T08:07:14.395Z,28.63
2018-09-01T08:09:43.551Z,30.23
2018-09-01T08:12:12.561Z,29.27
2018-09-01T08:14:41.787Z,29.83
2018-09-01T08:17:10.785Z,29.80
2018-09-01T08:19:39.997Z,30.97
2018-09-01T08:22:09.174Z,28.73
2018-09-01T08:24:38.259Z,21.87
2018-09-01T08:27:07.389Z,24.37
2018-09-01T08:29:36.415Z,27.93
2018-09-01T08:32:05.518Z,31.07
2018-09-01T08:34:34.685Z,26.37
2018-09-01T08:37:03.859Z,26.33
2018-09-01T08:39:33.141Z,25.37
2018-09-01T08:42:02.340Z,21.03
2018-09-01T08:44:31.481Z,21.87
2018-09-01T08:47:00.611Z,20.37
2018-09-01T08:49:29.774Z,19.20
2018-09-01T08:51:58.891Z,18.60
2018-09-01T08:54:28.016Z,19.13
2018-09-01T08:56:57.112Z,16.17
2018-09-01T08:59:26.368Z,17.60
2018-09-01T09:01:55.563Z,14.77
2018-09-01T09:04:24.688Z,19.13
2018-09-01T09:06:53.901Z,16.77
2018-09-01T09:09:23.085Z,15.90
2018-09-01T09:11:52.199Z,14.40
2018-09-01T09:14:21.266Z,11.90
2018-09-01T09:16:51.572Z,15.20
2018-09-01T09:19:20.811Z,14.00
2018-09-01T09:21:49.896Z,15.47
2018-09-01T09:24:19.641Z,12.73
2018-09-01T09:26:48.960Z,12.47
2018-09-01T09:29:18.025Z,8.67
2018-09-01T09:31:47.148Z,14.17
2018-09-01T09:34:17.390Z,13.90
2018-09-01T09:36:46.520Z,10.63
2018-09-01T09:39:15.686Z,9.23
2018-09-01T09:41:46.270Z,13.40
2018-09-01T09:44:15.618Z,12.30
2018-09-01T09:46:45.582Z,16.17
2018-09-01T09:49:15.501Z,8.27
2018-09-01T09:51:45.263Z,13.53
2018-09-01T09:54:14.373Z,10.47
2018-09-01T09:56:43.575Z,15.70
2018-09-01T09:59:13.054Z,9.00
2018-09-01T10:01:42.746Z,11.10
2018-09-01T10:04:13.301Z,8.83
2018-09-01T10:06:43.288Z,12.83
2018-09-01T10:09:14.925Z,7.13
2018-09-01T10:11:46.220Z,15.07
2018-09-01T10:14:18.114Z,11.80
2018-09-01T10:16:48.015Z,11.80
2018-09-01T10:19:17.293Z,9.10
2018-09-01T10:21:46.841Z,10.27
2018-09-01T10:24:15.972Z,12.70
2018-09-01T10:26:45.326Z,11.47
2018-09-01T10:29:14.681Z,11.17
2018-09-01T10:31:44.081Z,15.83
2018-09-01T10:34:13.269Z,20.43
2018-09-01T10:36:43.220Z,9.47
2018-09-01T10:39:13.129Z,9.93
2018-09-01T10:41:43.332Z,10.57
2018-09-01T10:44:14.064Z,9.70
2018-09-01T10:46:43.160Z,8.43
2018-09-01T10:49:12.417Z,10.40
2018-09-01T10:51:44.945Z,9.23
2018-09-01T10:54:14.053Z,11.23
2018-09-01T10:56:43.184Z,9.27
2018-09-01T10:59:12.373Z,11.03
2018-09-01T11:01:41.489Z,7.83
2018-09-01T11:04:10.774Z,12.37
2018-09-01T11:06:40.051Z,8.07
2018-09-01T11:09:11.248Z,10.23
2018-09-01T11:11:40.390Z,10.07
2018-09-01T11:14:13.729Z,8.17
2018-09-01T11:16:42.900Z,8.03
2018-09-01T11:19:12.665Z,9.37
2018-09-01T11:21:43.603Z,10.60
2018-09-01T11:24:13.380Z,7.90
2018-09-01T11:26:42.544Z,7.67
2018-09-01T11:29:11.949Z,10.80
2018-09-01T11:31:41.129Z,11.93
2018-09-01T11:34:10.370Z,8.10
2018-09-01T11:36:40.488Z,8.23
2018-09-01T11:39:11.005Z,8.83
2018-09-01T11:41:41.605Z,7.20
2018-09-01T11:44:10.720Z,8.00
2018-09-01T11:46:40.763Z,6.97
2018-09-01T11:49:10.043Z,10.27
2018-09-01T11:51:40.153Z,7.10
2018-09-01T11:54:09.511Z,8.30
2018-09-01T11:56:44.429Z,7.40
2018-09-01T11:59:14.734Z,6.60
2018-09-01T12:01:44.607Z,6.80
2018-09-01T12:04:13.821Z,10.83
2018-09-01T12:06:44.745Z,7.27
2018-09-01T12:09:16.628Z,7.92
2018-09-01T12:11:46.294Z,9.83
2018-09-01T12:14:15.644Z,6.87
2018-09-01T12:16:44.689Z,9.73
2018-09-01T12:19:13.856Z,9.23
2018-09-01T12:21:43.170Z,6.33
2018-09-01T12:24:12.226Z,11.17
2018-09-01T12:26:44.433Z,15.67
2018-09-01T12:29:13.761Z,8.80
2018-09-01T12:31:43.711Z,9.30
2018-09-01T12:34:12.888Z,6.87
2018-09-01T12:36:42.608Z,5.08
2018-09-01T12:39:11.786Z,5.77
2018-09-01T12:41:41.120Z,9.50
2018-09-01T12:46:45.122Z,5.20
2018-09-01T12:49:15.268Z,8.07
2018-09-01T12:51:45.708Z,6.93
2018-09-01T12:54:14.932Z,6.70
2018-09-01T12:56:48.790Z,6.67
2018-09-01T12:59:18.515Z,8.93
2018-09-01T13:01:47.576Z,5.45
2018-09-01T13:04:16.795Z,10.73
2018-09-01T13:06:46.169Z,6.80
2018-09-01T13:09:16.301Z,6.87
2018-09-01T13:11:45.519Z,4.17
2018-09-01T13:14:14.774Z,8.03
2018-09-01T13:16:44.026Z,5.60
2018-09-01T13:19:13.173Z,5.37
2018-09-01T13:21:42.298Z,5.62
2018-09-01T13:24:11.325Z,6.13
2018-09-01T13:26:41.835Z,7.25
2018-09-01T13:29:11.101Z,15.67
2018-09-01T13:31:40.373Z,9.60
2018-09-01T13:34:09.747Z,5.83
2018-09-01T13:36:43.052Z,10.00
2018-09-01T13:39:12.463Z,4.67
2018-09-01T13:41:43.616Z,9.60
2018-09-01T13:44:15.715Z,9.50
2018-09-01T13:46:45.043Z,5.47
2018-09-01T13:49:14.403Z,10.50
2018-09-01T13:51:43.858Z,4.93
2018-09-01T13:54:13.147Z,6.13
2018-09-01T13:56:43.109Z,4.50
2018-09-01T13:59:12.216Z,6.37
2018-09-01T14:01:41.870Z,4.77
2018-09-01T14:04:11.342Z,4.47
2018-09-01T14:06:41.526Z,4.13
2018-09-01T14:09:11.432Z,6.73
2018-09-01T14:11:40.749Z,6.70
2018-09-01T14:14:09.885Z,3.33
2018-09-01T14:16:39.044Z,6.50
2018-09-01T14:19:09.392Z,7.33
2018-09-01T14:21:38.581Z,4.00
2018-09-01T14:24:07.867Z,8.07
2018-09-01T14:26:37.322Z,5.33
2018-09-01T14:29:06.937Z,6.43
2018-09-01T14:31:36.638Z,7.60
2018-09-01T14:34:05.926Z,7.43
2018-09-01T14:36:35.605Z,6.83
2018-09-01T14:39:06.334Z,5.23
2018-09-01T14:41:37.142Z,4.97
2018-09-01T14:44:06.264Z,4.83
2018-09-01T14:46:41.494Z,5.53
2018-09-01T14:49:10.554Z,4.13
2018-09-01T14:51:40.610Z,5.07
2018-09-01T14:54:09.931Z,5.17
2018-09-01T14:56:41.883Z,7.87
2018-09-01T14:59:12.336Z,5.17
2018-09-01T15:01:42.387Z,5.25
2018-09-01T15:04:11.703Z,3.73
2018-09-01T15:06:41.187Z,4.15
2018-09-01T15:09:10.434Z,5.75
2018-09-01T15:11:39.648Z,6.55
2018-09-01T15:14:09.389Z,8.33
2018-09-01T15:16:38.623Z,2.83
2018-09-01T15:19:09.547Z,3.33
2018-09-01T15:21:38.932Z,4.55
2018-09-01T15:24:08.487Z,3.10
2018-09-01T15:26:38.379Z,4.90
2018-09-01T15:29:09.716Z,5.40
2018-09-01T15:31:39.664Z,1.45
2018-09-01T15:34:08.908Z,5.17
2018-09-01T15:36:37.976Z,3.37
2018-09-01T15:39:07.495Z,2.17
2018-09-01T15:41:36.740Z,3.40
2018-09-01T15:44:05.905Z,3.50
2018-09-01T15:46:35.059Z,1.83
2018-09-01T15:49:04.420Z,8.10
2018-09-01T15:51:33.647Z,2.27
2018-09-01T15:54:02.814Z,2.67
2018-09-01T15:56:32.353Z,3.50
2018-09-01T15:59:01.597Z,2.67
2018-09-01T16:01:29.456Z,2.98
2018-09-01T16:03:58.489Z,2.90
2018-09-01T16:06:27.531Z,4.37
2018-09-01T16:08:58.520Z,4.17
2018-09-01T16:11:28.155Z,4.67
2018-09-01T16:13:57.156Z,5.78
2018-09-01T16:16:26.275Z,2.40
2018-09-01T16:18:55.326Z,2.50
2018-09-01T16:21:24.584Z,4.33
2018-09-01T16:23:53.629Z,2.87
2018-09-01T16:26:22.819Z,3.40
2018-09-01T16:28:51.832Z,3.57
2018-09-01T16:31:20.987Z,4.30
2018-09-01T16:33:50.101Z,2.67
2018-09-01T16:36:19.956Z,3.07
2018-09-01T16:38:49.024Z,5.63
2018-09-01T16:41:18.753Z,2.90
2018-09-01T16:44:02.560Z,5.97
2018-09-01T16:46:31.757Z,3.90
2018-09-01T16:49:00.832Z,4.20
2018-09-01T16:51:29.928Z,3.43
2018-09-01T16:53:59.845Z,4.83
2018-09-01T16:56:28.930Z,3.70
2018-09-01T16:59:00.833Z,1.80
2018-09-01T17:01:31.045Z,2.63
2018-09-01T17:04:00.185Z,4.67
2018-09-01T17:06:29.247Z,7.63
2018-09-01T17:08:58.254Z,7.90
2018-09-01T17:11:34.073Z,6.70
2018-09-01T17:14:03.189Z,6.77
2018-09-01T17:16:33.492Z,5.83
2018-09-01T17:19:02.901Z,5.57
2018-09-01T17:21:32.100Z,4.67
2018-09-01T17:24:01.864Z,4.07
2018-09-01T17:26:30.965Z,7.27
2018-09-01T17:29:00.134Z,5.37
2018-09-01T17:31:30.267Z,2.23
2018-09-01T17:34:00.374Z,16.87
2018-09-01T17:36:29.504Z,8.30
2018-09-01T17:38:59.664Z,9.73
2018-09-01T17:41:28.741Z,12.97
2018-09-01T17:43:57.768Z,11.80
2018-09-01T17:46:26.841Z,9.10
2018-09-01T17:48:56.920Z,10.87
2018-09-01T17:51:26.570Z,15.17
2018-09-01T17:53:55.828Z,6.97
2018-09-01T17:56:25.247Z,4.67
2018-09-01T17:58:54.499Z,6.60
2018-09-01T18:01:25.914Z,6.80
2018-09-01T18:03:56.290Z,5.07
2018-09-01T18:06:25.833Z,5.60
2018-09-01T18:08:54.983Z,4.10
2018-09-01T18:11:24.060Z,3.53
2018-09-01T18:13:53.650Z,4.10
2018-09-01T18:16:23.612Z,4.03
2018-09-01T18:18:53.725Z,8.93
2018-09-01T18:21:22.798Z,5.10
2018-09-01T18:23:56.437Z,5.13
2018-09-01T18:26:25.518Z,8.90
2018-09-01T18:28:55.277Z,8.10
2018-09-01T18:31:24.615Z,4.57
2018-09-01T18:33:53.847Z,9.03
2018-09-01T18:36:23.871Z,3.43
2018-09-01T18:38:53.196Z,11.73
2018-09-01T18:41:22.352Z,12.37
2018-09-01T18:43:51.536Z,7.70
2018-09-01T18:46:20.547Z,5.97
2018-09-01T18:48:49.675Z,6.00
2018-09-01T18:51:18.691Z,5.53
2018-09-01T18:53:47.819Z,5.23
2018-09-01T18:56:17.176Z,6.47
2018-09-01T18:58:46.809Z,7.53
2018-09-01T19:01:16.205Z,7.20
2018-09-01T19:03:45.238Z,3.80
2018-09-01T19:06:14.397Z,4.87
2018-09-01T19:08:43.545Z,5.55
2018-09-01T19:11:12.595Z,4.43
2018-09-01T19:13:41.950Z,6.53
2018-09-01T19:16:11.011Z,5.50
2018-09-01T19:18:40.159Z,4.90
2018-09-01T19:21:09.221Z,3.53
2018-09-01T19:23:38.357Z,5.23
2018-09-01T19:26:07.460Z,6.27
2018-09-01T19:28:36.719Z,4.57
2018-09-01T19:31:05.783Z,5.43
2018-09-01T19:33:35.806Z,6.80
2018-09-01T19:36:05.412Z,7.77
2018-09-01T19:38:34.507Z,6.73
2018-09-01T19:41:03.573Z,4.43
2018-09-01T19:43:32.709Z,5.80
2018-09-01T19:46:02.140Z,6.40
2018-09-01T19:48:31.144Z,4.50
2018-09-01T19:51:00.200Z,8.67
2018-09-01T19:53:29.269Z,7.57
2018-09-01T19:55:58.359Z,7.77
2018-09-01T19:58:27.592Z,9.73
2018-09-01T20:00:56.731Z,10.47
2018-09-01T20:03:25.971Z,14.20
2018-09-01T20:05:57.611Z,7.50
2018-09-01T20:08:27.170Z,9.77
2018-09-01T20:10:56.244Z,9.40
2018-09-01T20:13:25.303Z,10.90
2018-09-01T20:15:54.364Z,6.03
2018-09-01T20:18:23.549Z,7.50
2018-09-01T20:20:54.220Z,7.67
2018-09-01T20:23:23.272Z,5.20
2018-09-01T20:25:52.325Z,7.80
2018-09-01T20:28:21.444Z,7.27
2018-09-01T20:30:50.661Z,11.33
2018-09-01T20:33:20.157Z,10.57
2018-09-01T20:35:55.355Z,5.23
2018-09-01T20:38:25.303Z,9.13
2018-09-01T20:40:54.418Z,7.70
2018-09-01T20:43:24.034Z,6.90
2018-09-01T20:45:53.448Z,10.73
2018-09-01T20:48:22.479Z,6.97
2018-09-01T20:50:52.855Z,9.20
2018-09-01T20:53:21.930Z,8.87
2018-09-01T20:55:51.099Z,6.70
2018-09-01T20:58:20.135Z,6.53
2018-09-01T21:00:49.312Z,7.23
2018-09-01T21:03:18.612Z,13.87
2018-09-01T21:05:47.719Z,4.93
2018-09-01T21:08:16.840Z,7.13
2018-09-01T21:10:46.560Z,7.73
2018-09-01T21:13:15.649Z,7.17
2018-09-01T21:15:44.859Z,13.03
2018-09-01T21:18:14.268Z,10.13
2018-09-01T21:20:43.438Z,10.90
2018-09-01T21:23:12.578Z,8.47
2018-09-01T21:25:41.673Z,6.20
2018-09-01T21:28:10.836Z,8.87
2018-09-01T21:30:39.894Z,5.27
2018-09-01T21:33:09.062Z,8.47
2018-09-01T21:35:38.148Z,12.77
2018-09-01T21:38:07.261Z,8.43
2018-09-01T21:40:36.270Z,7.60
2018-09-01T21:43:05.347Z,7.27
2018-09-01T21:45:34.523Z,8.37
2018-09-01T21:48:03.614Z,9.37
2018-09-01T21:50:32.755Z,16.37
2018-09-01T21:53:02.824Z,8.80
2018-09-01T21:55:31.869Z,8.93
2018-09-01T21:58:01.027Z,12.23
2018-09-01T22:00:31.073Z,8.47
2018-09-01T22:03:00.234Z,9.73
2018-09-01T22:05:29.380Z,11.37
2018-09-01T22:07:58.467Z,15.20
2018-09-01T22:10:27.500Z,10.77
2018-09-01T22:12:56.552Z,10.70
2018-09-01T22:15:25.710Z,12.73
2018-09-01T22:18:09.722Z,10.57
2018-09-01T22:20:42.455Z,13.97
2018-09-01T22:23:27.561Z,13.40
2018-09-01T22:26:13.321Z,13.50
2018-09-01T22:28:58.476Z,12.43
2018-09-01T22:31:41.888Z,14.13
2018-09-01T22:34:29.547Z,12.43
2018-09-01T22:36:58.885Z,12.43
2018-09-01T22:39:45.919Z,13.03
2018-09-01T22:42:15.276Z,12.20
2018-09-01T22:44:45.281Z,11.97
2018-09-01T22:47:25.976Z,12.53
2018-09-01T22:50:10.714Z,15.57
2018-09-01T22:52:52.385Z,18.60
2018-09-01T22:55:38.796Z,17.63
2018-09-01T22:58:08.464Z,16.20
2018-09-01T23:00:51.914Z,20.57
2018-09-01T23:03:37.935Z,20.57
2018-09-01T23:06:08.034Z,19.37
2018-09-01T23:08:52.492Z,20.20
2018-09-01T23:11:21.558Z,17.77
2018-09-01T23:13:50.598Z,18.37
2018-09-01T23:16:19.668Z,16.53
2018-09-01T23:18:48.814Z,20.40
2018-09-01T23:21:17.894Z,16.77
2018-09-01T23:23:46.983Z,19.10
2018-09-01T23:26:16.083Z,20.00
2018-09-01T23:28:45.273Z,23.00
2018-09-01T23:31:14.462Z,22.63
2018-09-01T23:33:43.546Z,19.00
2018-09-01T23:36:12.587Z,18.67
2018-09-01T23:38:41.939Z,17.50
2018-09-01T23:41:10.993Z,20.93
2018-09-01T23:43:40.087Z,19.20
2018-09-01T23:46:09.424Z,20.33
2018-09-01T23:48:38.575Z,16.53
2018-09-01T23:51:07.686Z,19.30
2018-09-01T23:53:36.784Z,20.73
2018-09-01T23:56:06.370Z,21.33
2018-09-01T23:58:35.430Z,18.10
